Time;durP1;ratioP1;P1;durP2;ratioP2;P2;SDS_P1;SDS_P2;PMS_P1;PMS_P2;Temp;Humidity;BMP_temperature;BMP_pressure;BME280_temperature;BME280_humidity;BME280_pressure;Samples;Min_cycle;Max_cycle;Signal;HPM_P1;HPM_P2
2023/10/09 00:03:03;;;;;;;0.40;0.40;;;13.80;99.90;;;;;;5092761;28;20040;-80
2023/10/09 00:08:22;;;;;;;0.40;0.40;;;13.80;99.90;;;;;;5093637;28;20090;-80
2023/10/09 00:10:57;;;;;;;0.50;0.50;;;13.80;99.90;;;;;;5094145;28;20036;-80
2023/10/09 00:13:29;;;;;;;0.40;0.40;;;13.80;99.90;;;;;;5093354;28;20270;-80
2023/10/09 00:16:13;;;;;;;0.30;0.30;;;13.80;99.90;;;;;;5093703;28;20452;-80
2023/10/09 00:18:39;;;;;;;0.55;0.55;;;13.80;99.90;;;;;;5093644;28;20105;-80
2023/10/09 00:21:12;;;;;;;0.30;0.30;;;13.80;99.90;;;;;;5093180;28;20514;-80
2023/10/09 00:23:40;;;;;;;0.50;0.50;;;13.80;99.90;;;;;;5093672;28;20036;-79
2023/10/09 00:26:09;;;;;;;0.32;0.32;;;13.80;99.90;;;;;;5093414;28;20048;-80
2023/10/09 00:28:41;;;;;;;0.40;0.40;;;13.90;99.90;;;;;;5093331;28;20071;-80
2023/10/09 00:31:13;;;;;;;0.50;0.50;;;13.80;99.90;;;;;;5093849;28;20097;-80
2023/10/09 00:33:38;;;;;;;0.40;0.40;;;13.80;99.90;;;;;;5093464;28;20040;-80
2023/10/09 00:36:11;;;;;;;0.73;0.70;;;13.80;99.90;;;;;;5093415;28;20043;-80
2023/10/09 00:38:45;;;;;;;0.55;0.55;;;13.80;99.90;;;;;;5093446;28;20044;-80
2023/10/09 00:41:11;;;;;;;0.63;0.35;;;13.80;99.90;;;;;;5093358;28;20079;-80
2023/10/09 00:43:42;;;;;;;0.30;0.30;;;13.80;99.90;;;;;;5093842;28;20379;-80
2023/10/09 00:46:16;;;;;;;0.50;0.50;;;13.80;99.90;;;;;;5093600;28;20048;-80
2023/10/09 00:48:42;;;;;;;0.43;0.43;;;13.80;99.90;;;;;;5093514;28;20036;-79
2023/10/09 00:51:24;;;;;;;0.40;0.40;;;13.80;99.90;;;;;;5092245;28;20089;-80
2023/10/09 00:54:07;;;;;;;0.68;0.52;;;13.90;99.90;;;;;;5093760;28;20119;-80
2023/10/09 00:56:41;;;;;;;0.43;0.43;;;13.80;99.90;;;;;;5094550;28;20036;-80
2023/10/09 00:59:09;;;;;;;0.55;0.52;;;13.80;99.90;;;;;;5096649;28;20040;-80
2023/10/09 01:01:41;;;;;;;0.30;0.30;;;13.80;99.90;;;;;;5096890;28;20118;-80
2023/10/09 01:04:10;;;;;;;0.47;0.47;;;13.80;99.90;;;;;;5096742;28;20417;-79
2023/10/09 01:06:44;;;;;;;1.40;0.73;;;13.80;99.90;;;;;;5097044;28;20426;-80
2023/10/09 01:09:14;;;;;;;0.30;0.30;;;13.80;99.90;;;;;;5097236;28;20091;-80
2023/10/09 01:14:24;;;;;;;0.63;0.60;;;13.70;99.90;;;;;;5096686;28;20044;-80
2023/10/09 01:16:53;;;;;;;0.40;0.40;;;13.70;99.90;;;;;;5096612;28;20043;-80
2023/10/09 01:19:26;;;;;;;0.30;0.30;;;13.70;99.90;;;;;;5096539;28;20086;-79
2023/10/09 01:21:53;;;;;;;0.85;0.55;;;13.70;99.90;;;;;;5096473;28;20353;-80
2023/10/09 01:24:19;;;;;;;0.70;0.70;;;13.70;99.90;;;;;;5096392;28;20043;-80
2023/10/09 01:26:46;;;;;;;0.60;0.60;;;13.70;99.90;;;;;;5095451;28;20036;-80
2023/10/09 01:29:21;;;;;;;0.90;0.75;;;13.70;99.90;;;;;;5096029;28;20032;-79
2023/10/09 01:31:54;;;;;;;0.40;0.40;;;13.70;99.90;;;;;;5095607;28;20048;-80
2023/10/09 01:34:43;;;;;;;0.47;0.47;;;13.70;99.90;;;;;;5096903;28;20446;-80
2023/10/09 01:37:23;;;;;;;0.50;0.50;;;13.70;99.90;;;;;;5095036;28;20612;-80
2023/10/09 01:39:50;;;;;;;0.43;0.43;;;13.70;99.90;;;;;;5096022;28;20494;-80
2023/10/09 01:44:55;;;;;;;0.50;0.50;;;13.70;99.90;;;;;;5096104;28;20471;-80
2023/10/09 01:47:21;;;;;;;0.70;0.70;;;13.70;99.90;;;;;;5095972;28;20047;-80
2023/10/09 01:49:52;;;;;;;0.40;0.40;;;13.70;99.90;;;;;;5096070;28;20043;-80
2023/10/09 01:52:18;;;;;;;0.60;0.60;;;13.60;99.90;;;;;;5095717;28;20032;-80
2023/10/09 01:54:49;;;;;;;0.60;0.60;;;13.70;99.90;;;;;;5095765;28;20036;-79
2023/10/09 01:57:21;;;;;;;0.50;0.50;;;13.60;99.90;;;;;;5095802;28;20132;-80
2023/10/09 01:59:49;;;;;;;0.75;0.65;;;13.50;99.90;;;;;;5094734;28;20078;-79
2023/10/09 02:02:33;;;;;;;0.80;0.70;;;13.60;99.90;;;;;;5095549;28;20032;-80
2023/10/09 02:07:51;;;;;;;0.50;0.50;;;13.60;99.90;;;;;;5094828;28;20059;-81
2023/10/09 02:13:09;;;;;;;0.50;0.50;;;13.60;99.90;;;;;;5095728;28;19959;-80
2023/10/09 02:15:45;;;;;;;0.50;0.50;;;13.60;99.90;;;;;;5095954;28;20074;-80
2023/10/09 02:23:30;;;;;;;0.77;0.77;;;13.60;99.90;;;;;;5095279;28;20086;-81
2023/10/09 02:26:04;;;;;;;0.50;0.50;;;13.60;99.90;;;;;;5095716;28;20348;-81
2023/10/09 02:28:32;;;;;;;0.47;0.47;;;13.60;99.90;;;;;;5095207;28;20044;-81
2023/10/09 02:31:01;;;;;;;1.20;0.90;;;13.60;99.90;;;;;;5095179;28;20506;-80
2023/10/09 02:33:30;;;;;;;0.50;0.50;;;13.60;99.90;;;;;;5095068;28;20058;-80
2023/10/09 02:36:04;;;;;;;0.60;0.60;;;13.60;99.90;;;;;;5093770;28;20437;-81
2023/10/09 02:38:35;;;;;;;3.33;0.73;;;13.60;99.90;;;;;;5095748;28;20043;-80
2023/10/09 02:43:44;;;;;;;0.75;0.75;;;13.60;99.90;;;;;;5095067;28;20105;-81
2023/10/09 02:46:29;;;;;;;0.63;0.63;;;13.60;99.90;;;;;;5095311;28;20048;-80
2023/10/09 02:48:57;;;;;;;0.80;0.80;;;13.60;99.90;;;;;;5095421;28;20126;-80
2023/10/09 02:53:55;;;;;;;0.65;0.60;;;13.60;99.90;;;;;;5094766;28;20044;-80
2023/10/09 02:56:24;;;;;;;0.50;0.50;;;13.50;99.90;;;;;;5094650;28;20040;-80
2023/10/09 02:59:05;;;;;;;0.57;0.57;;;13.60;99.90;;;;;;5094617;28;20048;-80
2023/10/09 03:01:31;;;;;;;0.50;0.50;;;13.60;99.90;;;;;;5094245;28;20047;-80
2023/10/09 03:04:01;;;;;;;0.50;0.50;;;13.60;99.90;;;;;;5094517;28;20046;-80
2023/10/09 03:06:30;;;;;;;0.70;0.70;;;13.60;99.90;;;;;;5094445;28;20079;-80
2023/10/09 03:09:00;;;;;;;3.58;0.90;;;13.50;99.90;;;;;;5094126;28;20052;-80
2023/10/09 03:11:28;;;;;;;0.60;0.60;;;13.60;99.90;;;;;;5093144;28;20486;-80
2023/10/09 03:13:57;;;;;;;0.68;0.68;;;13.60;99.90;;;;;;5094988;28;20132;-80
2023/10/09 03:16:23;;;;;;;0.67;0.67;;;13.60;99.90;;;;;;5094332;28;20051;-80
2023/10/09 03:18:51;;;;;;;0.43;0.43;;;13.90;99.90;;;;;;5094024;28;20044;-80
2023/10/09 03:21:17;;;;;;;0.57;0.57;;;13.60;99.90;;;;;;5094188;28;20040;-80
2023/10/09 03:23:49;;;;;;;0.50;0.50;;;13.60;99.90;;;;;;5094211;28;20089;-80
2023/10/09 03:26:20;;;;;;;0.50;0.50;;;13.60;99.90;;;;;;5093847;28;20460;-80
2023/10/09 03:28:47;;;;;;;0.75;0.65;;;14.00;99.90;;;;;;5094048;28;20085;-80
2023/10/09 03:31:13;;;;;;;0.73;0.70;;;13.60;99.90;;;;;;5094125;28;20230;-80
2023/10/09 03:33:40;;;;;;;0.88;0.77;;;13.60;99.90;;;;;;5094058;28;20043;-80
2023/10/09 03:36:09;;;;;;;;;;;13.60;99.90;;;;;;5094476;28;20048;-80
2023/10/09 03:38:36;;;;;;;0.75;0.75;;;13.60;99.90;;;;;;5092774;28;19938;-80
2023/10/09 03:41:05;;;;;;;0.77;0.75;;;13.60;99.90;;;;;;5076091;28;20048;-80
2023/10/09 03:43:34;;;;;;;0.50;0.50;;;13.60;99.90;;;;;;5093814;28;20062;-80
2023/10/09 03:46:03;;;;;;;1.05;0.50;;;13.60;99.90;;;;;;5093882;28;20059;-80
2023/10/09 03:48:32;;;;;;;4.45;0.82;;;13.60;99.90;;;;;;5093695;28;20048;-80
2023/10/09 03:51:11;;;;;;;1.27;0.63;;;13.60;99.90;;;;;;5093495;28;20040;-80
2023/10/09 03:53:39;;;;;;;0.88;0.77;;;13.60;99.90;;;;;;5094218;28;20097;-80
2023/10/09 03:56:11;;;;;;;0.65;0.65;;;13.60;99.90;;;;;;5093738;28;20040;-80
2023/10/09 03:58:48;;;;;;;5.30;2.03;;;13.60;99.90;;;;;;5093556;28;20097;-80
2023/10/09 04:01:28;;;;;;;2.25;1.48;;;13.60;99.90;;;;;;5093741;28;20055;-80
2023/10/09 04:04:02;;;;;;;0.50;0.50;;;13.60;99.90;;;;;;5093559;28;20062;-80
2023/10/09 04:06:32;;;;;;;0.93;0.85;;;13.70;99.90;;;;;;5093422;28;20360;-80
2023/10/09 04:11:49;;;;;;;0.70;0.70;;;13.70;99.90;;;;;;5093533;28;20078;-80
2023/10/09 04:14:32;;;;;;;0.70;0.70;;;13.70;99.90;;;;;;5093349;28;20043;-80
2023/10/09 04:17:32;;;;;;;3.45;1.10;;;13.70;99.90;;;;;;5094017;28;20044;-80
2023/10/09 04:22:49;;;;;;;0.70;0.70;;;13.80;99.90;;;;;;5093396;28;20040;-80
2023/10/09 04:25:25;;;;;;;1.17;0.90;;;14.00;99.90;;;;;;5093588;28;20040;-81
2023/10/09 04:30:46;;;;;;;0.60;0.60;;;13.80;99.90;;;;;;5093336;28;20594;-80
2023/10/09 04:39:06;;;;;;;0.40;0.40;;;13.90;99.90;;;;;;5097598;28;20318;-80
2023/10/09 04:41:33;;;;;;;1.23;1.02;;;13.90;99.90;;;;;;5097364;28;20102;-80
2023/10/09 04:46:44;;;;;;;0.60;0.60;;;14.00;99.90;;;;;;5097432;28;19920;-80
2023/10/09 04:49:27;;;;;;;1.42;1.02;;;14.00;99.90;;;;;;5097019;28;20089;-80
2023/10/09 04:57:37;;;;;;;0.82;0.80;;;14.10;99.90;;;;;;5096033;28;20040;-75
2023/10/09 05:00:06;;;;;;;0.75;0.70;;;14.10;99.90;;;;;;5096766;28;20052;-73
2023/10/09 05:02:36;;;;;;;1.52;0.85;;;14.10;99.90;;;;;;5096668;28;20468;-74
2023/10/09 05:05:48;;;;;;;1.58;1.00;;;14.10;99.90;;;;;;5096507;28;20052;-72
2023/10/09 05:08:28;;;;;;;0.60;0.60;;;14.10;99.90;;;;;;5096724;28;20052;-73
2023/10/09 05:13:44;;;;;;;0.60;0.60;;;14.10;99.90;;;;;;5097029;28;20369;-72
2023/10/09 05:16:25;;;;;;;0.80;0.80;;;14.10;99.90;;;;;;5096121;28;20071;-73
2023/10/09 05:19:06;;;;;;;1.20;0.70;;;14.10;99.90;;;;;;5096494;28;20050;-74
2023/10/09 05:21:44;;;;;;;0.40;0.40;;;14.10;99.90;;;;;;5097165;28;20044;-72
2023/10/09 05:37:45;;;;;;;0.60;0.60;;;14.20;99.90;;;;;;5087241;28;20040;-72
2023/10/09 05:47:58;;;;;;;0.85;0.85;;;14.20;99.90;;;;;;5096154;28;20044;-75
2023/10/09 06:14:12;;;;;;;0.60;0.60;;;14.40;99.90;;;;;;5095730;28;20380;-77
2023/10/09 06:16:43;;;;;;;0.60;0.60;;;14.50;99.90;;;;;;5095554;28;20042;-76
2023/10/09 06:19:26;;;;;;;0.40;0.40;;;14.40;99.90;;;;;;5095405;28;20051;-83
2023/10/09 06:24:54;;;;;;;0.52;0.52;;;14.50;99.90;;;;;;5095672;28;20047;-83
2023/10/09 06:27:26;;;;;;;0.40;0.40;;;14.50;99.90;;;;;;5095223;28;20040;-82
2023/10/09 06:30:13;;;;;;;1.67;0.95;;;14.50;99.90;;;;;;5095232;28;20051;-81
2023/10/09 06:32:37;;;;;;;0.60;0.60;;;14.60;99.90;;;;;;5095328;28;20040;-81
2023/10/09 06:35:21;;;;;;;0.60;0.60;;;14.60;99.90;;;;;;5095074;28;20529;-82
2023/10/09 06:45:54;;;;;;;0.75;0.60;;;14.70;99.90;;;;;;5094061;28;20048;-82
2023/10/09 06:51:39;;;;;;;0.57;0.57;;;14.80;99.90;;;;;;5093884;28;20048;-82
2023/10/09 06:54:25;;;;;;;0.50;0.45;;;14.80;99.90;;;;;;5093899;28;20040;-79
2023/10/09 06:59:24;;;;;;;1.20;0.95;;;14.90;99.90;;;;;;5093848;28;20048;-80
2023/10/09 07:07:07;;;;;;;0.60;0.60;;;15.00;99.90;;;;;;5094288;28;20051;-72
2023/10/09 07:09:42;;;;;;;0.68;0.68;;;15.10;99.90;;;;;;5094303;28;20391;-74
2023/10/09 07:12:20;;;;;;;1.73;0.50;;;15.10;99.90;;;;;;5094131;28;20444;-73
2023/10/09 07:22:56;;;;;;;3.35;1.25;;;15.30;99.90;;;;;;5094122;28;20043;-74
2023/10/09 07:25:40;;;;;;;1.10;1.00;;;15.30;99.90;;;;;;5094056;28;20118;-80
2023/10/09 07:28:18;;;;;;;0.40;0.40;;;15.30;99.90;;;;;;5094010;28;20047;-76
2023/10/09 07:30:46;;;;;;;1.17;0.77;;;15.40;99.90;;;;;;5093533;28;20476;-75
2023/10/09 07:38:19;;;;;;;0.82;0.70;;;15.60;99.90;;;;;;5093798;28;20080;-73
2023/10/09 07:40:59;;;;;;;1.35;0.80;;;15.50;99.90;;;;;;5093828;28;20479;-75
2023/10/09 07:43:31;;;;;;;0.57;0.45;;;15.60;99.90;;;;;;5093587;28;20079;-75
2023/10/09 07:48:25;;;;;;;0.40;0.40;;;15.70;99.90;;;;;;5093638;28;20464;-80
2023/10/09 07:50:57;;;;;;;3.47;0.60;;;15.70;99.90;;;;;;5093624;28;20119;-75
2023/10/09 07:53:26;;;;;;;0.30;0.30;;;15.70;99.90;;;;;;5093398;28;20499;-74
2023/10/09 07:55:58;;;;;;;0.52;0.52;;;15.70;99.90;;;;;;5093217;28;20043;-75
2023/10/09 07:58:25;;;;;;;0.60;0.60;;;15.70;99.90;;;;;;5093632;28;20044;-75
2023/10/09 08:03:24;;;;;;;0.35;0.30;;;15.80;99.90;;;;;;5093863;28;19920;-75
2023/10/09 08:05:52;;;;;;;1.27;1.17;;;15.80;99.90;;;;;;5093556;28;20047;-75
2023/10/09 08:13:49;;;;;;;0.50;0.50;;;15.90;99.90;;;;;;5097614;28;20079;-75
2023/10/09 08:16:21;;;;;;;0.60;0.52;;;15.90;99.90;;;;;;5097742;28;20043;-76
2023/10/09 08:18:51;;;;;;;0.40;0.40;;;15.90;99.90;;;;;;5097476;28;20177;-76
2023/10/09 08:23:49;;;;;;;0.47;0.43;;;16.00;99.90;;;;;;5097804;28;20048;-79
2023/10/09 08:26:47;;;;;;;0.50;0.50;;;16.00;99.90;;;;;;5099351;28;20035;-73
2023/10/09 08:29:18;;;;;;;0.88;0.82;;;16.00;99.90;;;;;;5096767;28;20083;-75
2023/10/09 08:31:47;;;;;;;1.08;0.55;;;16.00;99.90;;;;;;5097433;28;20044;-81
2023/10/09 08:34:49;;;;;;;0.60;0.60;;;16.10;99.90;;;;;;5097905;28;20051;-78
2023/10/09 08:37:05;;;;;;;0.30;0.30;;;16.10;99.90;;;;;;5094832;28;20040;-81
2023/10/09 08:39:35;;;;;;;0.50;0.50;;;16.10;99.90;;;;;;5097386;28;20050;-71
2023/10/09 08:42:03;;;;;;;0.30;0.30;;;16.00;99.90;;;;;;5097053;28;20391;-73
2023/10/09 08:44:33;;;;;;;0.50;0.50;;;16.10;99.90;;;;;;5097252;28;20050;-75
2023/10/09 08:46:59;;;;;;;0.32;0.32;;;16.20;99.90;;;;;;5096809;28;20471;-74
2023/10/09 08:49:26;;;;;;;1.07;0.97;;;16.20;99.90;;;;;;5096916;28;20040;-75
2023/10/09 08:51:54;;;;;;;0.50;0.50;;;16.20;99.90;;;;;;5096993;28;20047;-75
2023/10/09 08:54:20;;;;;;;0.50;0.50;;;16.20;99.90;;;;;;5096763;28;20047;-75
2023/10/09 08:56:49;;;;;;;0.40;0.40;;;16.30;99.90;;;;;;5096865;28;20035;-75
2023/10/09 08:59:22;;;;;;;0.30;0.30;;;16.30;99.90;;;;;;5096145;28;20425;-75
2023/10/09 09:01:49;;;;;;;0.50;0.50;;;16.30;99.90;;;;;;5096489;28;20494;-75
2023/10/09 09:04:33;;;;;;;;;;;16.30;99.90;;;;;;5097035;28;20090;-75
2023/10/09 09:06:59;;;;;;;0.75;0.73;;;16.30;99.90;;;;;;5096521;28;19923;-75
2023/10/09 09:09:28;;;;;;;0.40;0.37;;;16.30;99.90;;;;;;5096739;28;20056;-75
2023/10/09 09:11:55;;;;;;;0.60;0.60;;;16.30;99.90;;;;;;5112130;28;20445;-75
2023/10/09 09:14:36;;;;;;;0.40;0.40;;;16.30;99.90;;;;;;5096662;28;20415;-75
2023/10/09 09:17:04;;;;;;;0.50;0.50;;;16.30;99.90;;;;;;5096081;28;20075;-74
2023/10/09 09:19:36;;;;;;;0.80;0.75;;;16.30;99.90;;;;;;5096217;28;20044;-76
2023/10/09 09:22:12;;;;;;;0.50;0.50;;;16.30;99.90;;;;;;5096282;28;20044;-76
2023/10/09 09:24:39;;;;;;;0.60;0.60;;;16.20;99.90;;;;;;5096319;28;20093;-73
2023/10/09 09:27:18;;;;;;;0.35;0.35;;;16.30;99.90;;;;;;5096305;28;20089;-74
2023/10/09 09:29:54;;;;;;;0.50;0.50;;;16.30;99.90;;;;;;5096341;28;20119;-78
2023/10/09 09:32:35;;;;;;;0.45;0.45;;;16.30;99.90;;;;;;5096226;28;20044;-77
2023/10/09 09:35:04;;;;;;;0.30;0.30;;;16.30;99.90;;;;;;5096013;28;20055;-75
2023/10/09 09:40:15;;;;;;;0.60;0.50;;;16.20;99.90;;;;;;5095847;28;20523;-78
2023/10/09 09:42:50;;;;;;;0.40;0.40;;;16.30;99.90;;;;;;5096112;28;20084;-75
2023/10/09 09:45:16;;;;;;;0.52;0.52;;;16.30;99.90;;;;;;5096243;28;20057;-75
2023/10/09 09:47:51;;;;;;;0.70;0.60;;;16.30;99.90;;;;;;5095845;28;20127;-75
2023/10/09 09:50:24;;;;;;;0.80;0.73;;;16.30;99.90;;;;;;5095686;28;20478;-78
2023/10/09 09:52:55;;;;;;;2.05;0.73;;;16.40;99.90;;;;;;5095776;28;20044;-77
2023/10/09 09:55:30;;;;;;;0.40;0.40;;;16.40;99.90;;;;;;5095823;28;20047;-77
2023/10/09 09:57:57;;;;;;;0.40;0.40;;;16.40;99.90;;;;;;5094885;28;20051;-78
2023/10/09 10:00:30;;;;;;;0.50;0.50;;;16.40;99.90;;;;;;5094685;28;20066;-78
2023/10/09 10:03:07;;;;;;;0.32;0.32;;;16.40;99.90;;;;;;5095507;28;20043;-75
2023/10/09 10:05:34;;;;;;;0.95;0.65;;;16.50;99.90;;;;;;5095546;28;20452;-77
2023/10/09 10:08:00;;;;;;;0.50;0.50;;;16.50;99.90;;;;;;5095529;28;20047;-77
2023/10/09 10:10:49;;;;;;;0.40;0.40;;;16.60;99.90;;;;;;5095489;28;20055;-77
2023/10/09 10:13:23;;;;;;;0.60;0.60;;;16.60;99.90;;;;;;5095252;28;20077;-76
2023/10/09 10:16:00;;;;;;;0.73;0.60;;;16.60;99.90;;;;;;5095276;28;20086;-77
2023/10/09 10:18:32;;;;;;;1.02;0.93;;;16.60;99.90;;;;;;5094923;28;20093;-77
2023/10/09 10:21:17;;;;;;;0.40;0.40;;;16.70;99.90;;;;;;5095497;28;20040;-76
2023/10/09 10:23:48;;;;;;;0.47;0.47;;;16.80;99.90;;;;;;5097907;28;20040;-76
2023/10/09 10:26:25;;;;;;;0.40;0.40;;;16.80;99.90;;;;;;5095059;28;20415;-76
2023/10/09 10:29:34;;;;;;;1.23;0.93;;;16.90;99.90;;;;;;5099900;28;20048;-74
2023/10/09 10:32:06;;;;;;;0.82;0.77;;;17.00;99.90;;;;;;5094931;28;20130;-72
2023/10/09 10:34:55;;;;;;;0.50;0.50;;;17.20;99.90;;;;;;5095112;28;20035;-74
2023/10/09 10:37:50;;;;;;;1.27;0.55;;;17.30;99.90;;;;;;5095016;28;20048;-74
2023/10/09 10:43:31;;;;;;;0.43;0.43;;;17.30;99.90;;;;;;5094336;28;20127;-73
2023/10/09 10:46:15;;;;;;;;;;;17.30;99.90;;;;;;5095048;28;20040;-72
2023/10/09 10:48:47;;;;;;;0.88;0.63;;;17.30;99.90;;;;;;5094703;28;20359;-72
2023/10/09 10:51:23;;;;;;;0.63;0.63;;;17.30;99.90;;;;;;5094327;28;20032;-72
2023/10/09 10:53:56;;;;;;;2.97;0.73;;;17.30;99.90;;;;;;5093601;28;20044;-74
2023/10/09 10:56:34;;;;;;;0.70;0.70;;;17.30;99.90;;;;;;5094643;28;20104;-73
2023/10/09 11:01:53;;;;;;;1.30;1.13;;;17.30;99.90;;;;;;5094228;28;20400;-72
2023/10/09 11:07:16;;;;;;;0.40;0.40;;;17.30;99.90;;;;;;5094407;28;20483;-77
2023/10/09 11:12:37;;;;;;;2.58;1.38;;;17.30;99.90;;;;;;5093873;28;20039;-76
2023/10/09 11:15:29;;;;;;;0.60;0.60;;;17.30;99.90;;;;;;5094094;28;20051;-74
2023/10/09 11:18:07;;;;;;;0.68;0.63;;;17.30;99.90;;;;;;5093892;28;20143;-74
2023/10/09 11:20:38;;;;;;;0.70;0.70;;;17.30;99.90;;;;;;5094287;28;20059;-74
2023/10/09 11:25:50;;;;;;;0.70;0.70;;;17.30;99.90;;;;;;5093965;28;20048;-75
2023/10/09 11:31:16;;;;;;;0.65;0.55;;;17.20;99.90;;;;;;5093471;28;20130;-77
2023/10/09 11:33:52;;;;;;;1.08;0.75;;;17.20;99.90;;;;;;5093898;28;20089;-72
2023/10/09 11:36:32;;;;;;;0.70;0.70;;;17.20;99.90;;;;;;5093775;28;20534;-77
2023/10/09 11:39:13;;;;;;;0.80;0.80;;;17.20;99.90;;;;;;5092655;28;20079;-78
2023/10/09 11:41:42;;;;;;;0.70;0.70;;;17.20;99.90;;;;;;5093659;28;20036;-77
2023/10/09 11:44:33;;;;;;;0.90;0.82;;;17.10;99.90;;;;;;5093600;28;20035;-77
2023/10/09 11:47:54;;;;;;;0.65;0.52;;;17.10;99.90;;;;;;5092956;28;20367;-78
2023/10/09 11:55:02;;;;;;;4.60;0.90;;;17.20;99.90;;;;;;5093885;28;20131;-78
2023/10/09 11:57:33;;;;;;;0.73;0.73;;;17.20;99.90;;;;;;5093536;28;20083;-77
2023/10/09 12:00:00;;;;;;;0.65;0.65;;;17.30;99.90;;;;;;5092330;28;20131;-78
2023/10/09 12:02:25;;;;;;;;;;;17.30;99.90;;;;;;5093555;28;20032;-77
2023/10/09 12:04:51;;;;;;;0.60;0.50;;;17.30;99.90;;;;;;5092408;28;19985;-75
2023/10/09 12:07:20;;;;;;;1.10;1.00;;;17.30;99.90;;;;;;5093047;28;20046;-77
2023/10/09 12:09:47;;;;;;;0.38;0.38;;;17.30;99.90;;;;;;5093401;28;20127;-78
2023/10/09 12:12:13;;;;;;;0.60;0.47;;;17.30;99.90;;;;;;5093499;28;20087;-76
2023/10/09 12:14:42;;;;;;;0.40;0.40;;;17.40;99.90;;;;;;5092234;28;20082;-78
2023/10/09 12:17:08;;;;;;;0.40;0.40;;;17.30;99.90;;;;;;5093202;28;20040;-75
2023/10/09 12:19:38;;;;;;;1.23;0.60;;;17.40;99.90;;;;;;5093446;28;20083;-77
2023/10/09 12:22:15;;;;;;;0.57;0.57;;;17.40;99.90;;;;;;5093250;28;20040;-79
2023/10/09 12:24:43;;;;;;;0.35;0.35;;;17.40;99.90;;;;;;5093446;28;20036;-79
2023/10/09 12:27:11;;;;;;;0.40;0.40;;;17.40;99.90;;;;;;5092780;28;20082;-79
2023/10/09 12:29:37;;;;;;;0.60;0.60;;;17.40;99.90;;;;;;5093154;28;20044;-80
2023/10/09 12:32:03;;;;;;;1.05;0.80;;;17.40;99.90;;;;;;5092226;28;20048;-77
2023/10/09 12:34:30;;;;;;;0.50;0.50;;;17.50;99.90;;;;;;5093366;28;20051;-77
2023/10/09 12:37:02;;;;;;;0.57;0.57;;;17.50;99.90;;;;;;5093368;28;20048;-79
2023/10/09 12:39:33;;;;;;;0.68;0.55;;;17.60;99.90;;;;;;5092868;28;20528;-77
2023/10/09 12:42:06;;;;;;;0.40;0.30;;;17.60;99.90;;;;;;5093047;28;20391;-77
2023/10/09 12:44:34;;;;;;;1.67;0.73;;;17.60;99.90;;;;;;5093356;28;20463;-78
2023/10/09 12:47:04;;;;;;;0.30;0.30;;;17.70;99.90;;;;;;5093769;28;20065;-79
2023/10/09 12:49:30;;;;;;;0.40;0.40;;;17.70;99.90;;;;;;5093614;28;20054;-76
2023/10/09 12:51:57;;;;;;;0.47;0.47;;;17.70;99.90;;;;;;5093885;28;20036;-77
2023/10/09 12:54:26;;;;;;;1.02;0.70;;;17.80;99.90;;;;;;5097214;28;20047;-77
2023/10/09 12:56:53;;;;;;;0.73;0.50;;;17.90;99.90;;;;;;5095423;28;20036;-76
2023/10/09 12:59:20;;;;;;;0.30;0.30;;;18.00;99.90;;;;;;5097045;28;20353;-76
2023/10/09 13:01:52;;;;;;;0.30;0.30;;;18.20;99.90;;;;;;5096730;28;20044;-76
2023/10/09 13:04:21;;;;;;;0.30;0.30;;;18.30;99.90;;;;;;5096604;28;20443;-77
2023/10/09 13:06:47;;;;;;;0.30;0.30;;;18.50;99.90;;;;;;5096830;28;20057;-77
2023/10/09 13:09:15;;;;;;;0.43;0.40;;;18.70;99.90;;;;;;5096243;28;20107;-78
2023/10/09 13:11:42;;;;;;;2.17;0.63;;;18.80;99.90;;;;;;5095965;28;20328;-77
2023/10/09 13:14:17;;;;;;;0.70;0.70;;;18.80;99.90;;;;;;5096767;28;20044;-76
2023/10/09 13:16:43;;;;;;;0.20;0.20;;;18.80;99.90;;;;;;5096545;28;20070;-76
2023/10/09 13:19:09;;;;;;;0.40;0.40;;;18.70;99.90;;;;;;5096627;28;20036;-76
2023/10/09 13:21:38;;;;;;;0.30;0.30;;;18.70;99.90;;;;;;5096471;28;20036;-76
2023/10/09 13:24:04;;;;;;;0.30;0.30;;;18.60;99.90;;;;;;5096113;28;20130;-76
2023/10/09 13:26:32;;;;;;;0.22;0.22;;;18.60;99.90;;;;;;5096153;28;20043;-77
2023/10/09 13:28:59;;;;;;;2.05;0.95;;;18.60;99.90;;;;;;5095002;28;20048;-74
2023/10/09 13:31:26;;;;;;;0.40;0.40;;;18.60;99.90;;;;;;5096346;28;20040;-72
2023/10/09 13:33:55;;;;;;;0.30;0.30;;;18.60;99.90;;;;;;5096130;28;20374;-81
2023/10/09 13:36:31;;;;;;;0.57;0.50;;;18.60;99.90;;;;;;5095983;28;20040;-73
2023/10/09 13:41:49;;;;;;;1.10;0.65;;;18.60;99.90;;;;;;5095558;28;20479;-73
2023/10/09 13:44:16;;;;;;;0.45;0.40;;;18.60;99.90;;;;;;5096165;28;20040;-73
2023/10/09 13:46:42;;;;;;;0.50;0.50;;;18.60;99.90;;;;;;5095599;28;20048;-74
2023/10/09 13:49:14;;;;;;;0.40;0.40;;;18.60;99.90;;;;;;5095548;28;20383;-72
2023/10/09 13:51:44;;;;;;;0.30;0.30;;;18.60;99.90;;;;;;5095754;28;20375;-71
2023/10/09 13:54:18;;;;;;;1.52;0.43;;;18.70;99.90;;;;;;5095394;28;20036;-70
2023/10/09 13:56:43;;;;;;;0.93;0.47;;;18.70;99.90;;;;;;5096027;28;20031;-73
2023/10/09 13:59:10;;;;;;;0.30;0.30;;;18.70;99.90;;;;;;5095469;28;20609;-71
2023/10/09 14:01:38;;;;;;;0.30;0.30;;;18.70;99.90;;;;;;5095214;28;20044;-72
2023/10/09 14:04:07;;;;;;;0.30;0.30;;;18.80;99.90;;;;;;5095453;28;20044;-71
2023/10/09 14:06:33;;;;;;;0.40;0.40;;;18.80;99.90;;;;;;5094282;28;20048;-73
2023/10/09 14:09:04;;;;;;;3.33;0.40;;;18.90;99.90;;;;;;5077071;28;20054;-70
2023/10/09 14:11:32;;;;;;;0.30;0.30;;;18.90;99.90;;;;;;5095190;28;20123;-75
2023/10/09 14:14:00;;;;;;;0.40;0.40;;;18.90;99.90;;;;;;5095420;28;20040;-74
2023/10/09 14:16:27;;;;;;;0.45;0.38;;;18.80;99.90;;;;;;5094023;28;20131;-75
2023/10/09 14:18:56;;;;;;;0.30;0.30;;;18.80;99.90;;;;;;5095069;28;20040;-77
2023/10/09 14:21:26;;;;;;;0.40;0.40;;;18.70;99.90;;;;;;5095271;28;20036;-76
2023/10/09 14:23:56;;;;;;;0.30;0.30;;;18.70;99.90;;;;;;5094585;28;20475;-74
2023/10/09 14:26:25;;;;;;;0.30;0.30;;;18.70;99.90;;;;;;5095215;28;20047;-73
2023/10/09 14:28:52;;;;;;;0.73;0.65;;;18.70;99.90;;;;;;5094986;28;20106;-74
2023/10/09 14:31:22;;;;;;;0.43;0.43;;;18.70;99.90;;;;;;5095007;28;20408;-74
2023/10/09 14:33:53;;;;;;;0.30;0.30;;;18.60;99.90;;;;;;5094704;28;20513;-73
2023/10/09 14:36:21;;;;;;;0.75;0.70;;;18.60;99.90;;;;;;5095049;28;20040;-74
2023/10/09 14:38:52;;;;;;;0.20;0.20;;;18.60;99.90;;;;;;5094751;28;20040;-74
2023/10/09 14:41:25;;;;;;;0.40;0.40;;;18.60;99.90;;;;;;5095008;28;20058;-77
2023/10/09 14:43:52;;;;;;;0.35;0.35;;;18.50;99.90;;;;;;5094789;28;20427;-73
2023/10/09 14:46:24;;;;;;;0.30;0.30;;;18.50;99.90;;;;;;5094779;28;20380;-74
2023/10/09 14:48:52;;;;;;;0.63;0.63;;;18.40;99.90;;;;;;5095030;28;20062;-75
2023/10/09 14:51:28;;;;;;;0.35;0.35;;;18.40;99.90;;;;;;5094367;28;20040;-77
2023/10/09 14:53:57;;;;;;;0.55;0.50;;;18.30;99.90;;;;;;5094336;28;20075;-75
2023/10/09 14:56:29;;;;;;;0.30;0.30;;;18.30;99.90;;;;;;5094559;28;20046;-75
2023/10/09 14:58:59;;;;;;;0.40;0.40;;;18.30;99.90;;;;;;5094711;28;20055;-76
2023/10/09 15:01:30;;;;;;;0.85;0.85;;;18.30;99.90;;;;;;5094482;28;20050;-75
2023/10/09 15:03:57;;;;;;;0.30;0.30;;;18.30;99.90;;;;;;5094248;28;20044;-75
2023/10/09 15:06:24;;;;;;;0.40;0.40;;;18.30;99.90;;;;;;5094204;28;20204;-74
2023/10/09 15:08:53;;;;;;;0.30;0.30;;;18.20;99.90;;;;;;5094402;28;20147;-75
2023/10/09 15:11:23;;;;;;;0.27;0.27;;;18.20;99.90;;;;;;5094326;28;20140;-74
2023/10/09 15:13:49;;;;;;;0.30;0.30;;;18.20;99.90;;;;;;5093346;28;20048;-75
2023/10/09 15:16:14;;;;;;;0.30;0.30;;;18.20;99.90;;;;;;5093781;28;20136;-75
2023/10/09 15:18:40;;;;;;;0.30;0.30;;;18.10;99.90;;;;;;5093179;28;20036;-74
2023/10/09 15:21:08;;;;;;;0.30;0.30;;;18.10;99.90;;;;;;5093875;28;20449;-73
2023/10/09 15:23:36;;;;;;;0.40;0.40;;;18.00;99.90;;;;;;5094070;28;20082;-74
2023/10/09 15:26:02;;;;;;;0.25;0.25;;;18.00;99.90;;;;;;5094063;28;20048;-73
2023/10/09 15:28:32;;;;;;;0.30;0.30;;;18.00;99.90;;;;;;5094033;28;20043;-71
2023/10/09 15:30:58;;;;;;;0.40;0.40;;;18.00;99.90;;;;;;5094219;28;20266;-73
2023/10/09 15:33:30;;;;;;;0.30;0.30;;;18.00;99.90;;;;;;5093760;28;20043;-71
2023/10/09 15:35:56;;;;;;;0.30;0.30;;;17.90;99.90;;;;;;5093394;28;20093;-74
2023/10/09 15:38:23;;;;;;;0.43;0.40;;;17.90;99.90;;;;;;5093644;28;20044;-77
2023/10/09 15:40:49;;;;;;;0.40;0.40;;;17.90;99.90;;;;;;5094014;28;20082;-73
2023/10/09 15:43:16;;;;;;;0.30;0.30;;;17.90;99.90;;;;;;5093785;28;20478;-74
2023/10/09 15:45:47;;;;;;;0.28;0.28;;;17.80;99.90;;;;;;5093777;28;20044;-75
2023/10/09 15:48:15;;;;;;;0.30;0.30;;;17.80;99.90;;;;;;5093629;28;20044;-75
2023/10/09 15:50:48;;;;;;;0.30;0.30;;;17.80;99.90;;;;;;5093518;28;20048;-76
2023/10/09 15:53:16;;;;;;;0.63;0.63;;;17.70;99.90;;;;;;5092608;28;20459;-71
2023/10/09 15:55:46;;;;;;;0.32;0.32;;;17.70;99.90;;;;;;5093676;28;20379;-72
2023/10/09 15:58:12;;;;;;;0.30;0.30;;;17.70;99.90;;;;;;5093642;28;20085;-71
2023/10/09 16:00:37;;;;;;;0.30;0.30;;;17.60;99.90;;;;;;5093314;28;20044;-72
2023/10/09 16:03:04;;;;;;;0.30;0.30;;;17.60;99.90;;;;;;5093424;28;20083;-72